Time;durP1;ratioP1;P1;durP2;ratioP2;P2;SDS_P1;SDS_P2;PMS_P1;PMS_P2;Temp;Humidity;BMP_temperature;BMP_pressure;BME280_temperature;BME280_humidity;BME280_pressure;Samples;Min_cycle;Max_cycle;Signal;HPM_P1;HPM_P2
2022/10/17 00:02:11;;;;;;;;;;;15.60;99.90;;;;;;5089262;28;20568;-83
2022/10/17 00:04:37;;;;;;;;;;;15.60;99.90;;;;;;5089716;28;19917;-83
2022/10/17 00:07:26;;;;;;;;;;;15.60;99.90;;;;;;5072679;28;19908;-83
2022/10/17 00:09:55;;;;;;;;;;;15.50;99.90;;;;;;5091046;28;19919;-83
2022/10/17 00:12:30;;;;;;;;;;;15.40;99.90;;;;;;5074435;28;19991;-83
2022/10/17 00:15:01;;;;;;;;;;;15.30;99.90;;;;;;5091654;28;19967;-83
2022/10/17 00:17:29;;;;;;;;;;;15.30;99.90;;;;;;5073017;28;19912;-84
2022/10/17 00:19:57;;;;;;;;;;;15.30;99.90;;;;;;5073275;28;19919;-83
2022/10/17 00:22:25;;;;;;;;;;;15.30;99.90;;;;;;5091788;28;19913;-83
2022/10/17 00:24:54;;;;;;;;;;;15.20;99.90;;;;;;5091120;28;19927;-84
2022/10/17 00:27:19;;;;;;;;;;;15.20;99.90;;;;;;5071439;28;19964;-83
2022/10/17 00:29:49;;;;;;;;;;;15.10;99.90;;;;;;5072782;28;19934;-84
2022/10/17 00:32:14;;;;;;;;;;;15.00;99.90;;;;;;5086331;28;19934;-83
2022/10/17 00:34:40;;;;;;;;;;;15.20;99.90;;;;;;5073751;28;19928;-83
2022/10/17 00:37:09;;;;;;;;;;;15.20;99.90;;;;;;5091923;28;19943;-83
2022/10/17 00:39:36;;;;;;;;;;;15.30;99.90;;;;;;5056953;28;20199;-83
2022/10/17 00:42:01;;;;;;;;;;;15.20;99.90;;;;;;5072117;28;19916;-84
2022/10/17 00:44:30;;;;;;;;;;;15.20;99.90;;;;;;5073312;28;19918;-84
2022/10/17 00:47:07;;;;;;;;;;;15.30;99.90;;;;;;5072266;28;19916;-84
2022/10/17 00:49:34;;;;;;;;;;;15.20;99.90;;;;;;5090804;28;19970;-83
2022/10/17 00:52:01;;;;;;;;;;;15.20;99.90;;;;;;5072964;28;19916;-83
2022/10/17 00:54:33;;;;;;;;;;;15.20;99.90;;;;;;5108239;28;19913;-83
2022/10/17 00:56:59;;;;;;;;;;;15.10;99.90;;;;;;5092202;28;19909;-83
2022/10/17 00:59:25;;;;;;;;;;;15.10;99.90;;;;;;5074527;28;19923;-84
2022/10/17 01:01:55;;;;;;;;;;;15.20;99.90;;;;;;5089756;28;19909;-83
2022/10/17 01:04:23;;;;;;;;;;;15.20;99.90;;;;;;5091916;28;20128;-83
2022/10/17 01:06:49;;;;;;;;;;;15.00;99.90;;;;;;5072691;28;19903;-83
2022/10/17 01:09:15;;;;;;;;;;;14.90;99.90;;;;;;5077419;28;19913;-83
2022/10/17 01:11:49;;;;;;;;;;;14.90;99.90;;;;;;5094737;28;19980;-84
2022/10/17 01:14:41;;;;;;;;;;;14.80;99.90;;;;;;5078017;28;19908;-84
2022/10/17 01:17:15;;;;;;;;;;;14.80;99.90;;;;;;5073549;28;19912;-84
2022/10/17 01:20:00;;;;;;;;;;;14.80;99.90;;;;;;5108129;28;19916;-84
2022/10/17 01:22:27;;;;;;;;;;;14.90;99.90;;;;;;5107955;28;19935;-84
2022/10/17 01:25:10;;;;;;;;;;;14.90;99.90;;;;;;5095021;28;19912;-84
2022/10/17 01:27:54;;;;;;;;;;;15.00;99.90;;;;;;5095350;28;19919;-83
2022/10/17 01:30:41;;;;;;;;;;;15.00;99.90;;;;;;5093221;28;19916;-83
2022/10/17 01:33:12;;;;;;;;;;;14.90;99.90;;;;;;5072430;28;19971;-83
2022/10/17 01:35:47;;;;;;;;;;;14.90;99.90;;;;;;5089622;28;19912;-84
2022/10/17 01:38:20;;;;;;;;;;;15.00;99.90;;;;;;5087792;28;19920;-83
2022/10/17 01:41:00;;;;;;;;;;;15.00;99.90;;;;;;5088264;28;19927;-83
2022/10/17 01:43:36;;;;;;;;;;;14.90;99.90;;;;;;5088074;28;19913;-83
2022/10/17 01:46:05;;;;;;;;;;;14.90;99.90;;;;;;5090030;28;19924;-84
2022/10/17 01:48:34;;;;;;;;;;;14.90;99.90;;;;;;5093509;28;19916;-84
2022/10/17 01:51:08;;;;;;;;;;;14.80;99.90;;;;;;5075121;28;19976;-84
2022/10/17 01:53:40;;;;;;;;;;;14.70;99.90;;;;;;5094533;28;20401;-84
2022/10/17 01:56:07;;;;;;;;;;;14.70;99.90;;;;;;5092839;28;19912;-83
2022/10/17 01:58:37;;;;;;;;;;;14.70;99.90;;;;;;5093998;28;19974;-83
2022/10/17 02:01:04;;;;;;;;;;;14.70;99.90;;;;;;5094437;28;20080;-82
2022/10/17 02:03:34;;;;;;;;;;;14.70;99.90;;;;;;5093419;28;19909;-84
2022/10/17 02:06:00;;;;;;;;;;;14.70;99.90;;;;;;5094282;28;19920;-83
2022/10/17 02:08:42;;;;;;;;;;;14.80;99.90;;;;;;5095588;28;19931;-83
2022/10/17 02:11:14;;;;;;;;;;;14.80;99.90;;;;;;5095457;28;19908;-84
2022/10/17 02:13:51;;;;;;;;;;;14.90;99.90;;;;;;5094951;28;19915;-83
2022/10/17 02:16:29;;;;;;;;;;;14.80;99.90;;;;;;5074919;28;19908;-83
2022/10/17 02:19:07;;;;;;;;;;;14.70;99.90;;;;;;5091189;28;19935;-83
2022/10/17 02:21:40;;;;;;;;;;;14.80;99.90;;;;;;5098493;28;19909;-83
2022/10/17 02:24:20;;;;;;;;;;;14.80;99.90;;;;;;5095405;28;19943;-83
2022/10/17 02:26:48;;;;;;;;;;;14.70;99.90;;;;;;5095374;28;19918;-83
2022/10/17 02:29:21;;;;;;;;;;;14.60;99.90;;;;;;5114923;28;19922;-83
2022/10/17 02:31:53;;;;;;;;;;;14.60;99.90;;;;;;5115164;28;19908;-83
2022/10/17 02:34:29;;;;;;;;;;;14.60;99.90;;;;;;5114171;28;19919;-82
2022/10/17 02:36:57;;;;;;;;;;;14.60;99.90;;;;;;5093335;28;19908;-83
2022/10/17 02:39:23;;;;;;;;;;;14.60;99.90;;;;;;5072985;28;19909;-83
2022/10/17 02:41:52;;;;;;;;;;;14.60;99.90;;;;;;5086759;28;19912;-83
2022/10/17 02:44:27;;;;;;;;;;;14.50;99.90;;;;;;5094175;28;19908;-83
2022/10/17 02:46:57;;;;;;;;;;;14.50;99.90;;;;;;5093627;28;19984;-83
2022/10/17 02:49:35;;;;;;;;;;;14.50;99.90;;;;;;5093811;28;19908;-84
2022/10/17 02:52:11;;;;;;;;;;;14.70;99.90;;;;;;5093279;28;19935;-83
2022/10/17 02:54:40;;;;;;;;;;;14.80;99.90;;;;;;5092836;28;19923;-83
2022/10/17 02:57:12;;;;;;;;;;;14.80;99.90;;;;;;5092773;28;19944;-84
2022/10/17 02:59:40;;;;;;;;;;;14.70;99.90;;;;;;5093585;28;19952;-83
2022/10/17 03:02:11;;;;;;;;;;;14.70;99.90;;;;;;5088797;28;19916;-83
2022/10/17 03:04:46;;;;;;;;;;;14.70;99.90;;;;;;5084646;28;19912;-83
2022/10/17 03:07:12;;;;;;;;;;;14.70;99.90;;;;;;5086770;28;20560;-82
2022/10/17 03:09:38;;;;;;;;;;;14.60;99.90;;;;;;5086839;28;19980;-82
2022/10/17 03:12:04;;;;;;;;;;;14.60;99.90;;;;;;5085933;28;19924;-82
2022/10/17 03:14:32;;;;;;;;;;;14.60;99.90;;;;;;5086377;28;19968;-83
2022/10/17 03:16:58;;;;;;;;;;;14.50;99.90;;;;;;5086351;28;19913;-83
2022/10/17 03:19:24;;;;;;;;;;;14.60;99.90;;;;;;5087277;28;19913;-83
2022/10/17 03:21:49;;;;;;;;;;;14.50;99.90;;;;;;5086609;28;19923;-84
2022/10/17 03:24:17;;;;;;;;;;;14.50;99.90;;;;;;5070470;28;19991;-84
2022/10/17 03:26:45;;;;;;;;;;;14.50;99.90;;;;;;5085002;28;19952;-84
2022/10/17 03:29:12;;;;;;;;;;;14.50;99.90;;;;;;5085622;28;19944;-83
2022/10/17 03:31:38;;;;;;;;;;;14.50;99.90;;;;;;5084647;28;19920;-83
2022/10/17 03:34:03;;;;;;;;;;;14.50;99.90;;;;;;5085035;28;20412;-84
2022/10/17 03:36:29;;;;;;;;;;;14.40;99.90;;;;;;5085268;28;19934;-84
2022/10/17 03:39:08;;;;;;;;;;;14.40;99.90;;;;;;5086624;28;19912;-83
2022/10/17 03:41:40;;;;;;;;;;;14.50;99.90;;;;;;5085482;28;19913;-83
2022/10/17 03:44:12;;;;;;;;;;;14.40;99.90;;;;;;5087190;28;19920;-83
2022/10/17 03:46:37;;;;;;;;;;;14.40;99.90;;;;;;5087935;28;19907;-84
2022/10/17 03:49:03;;;;;;;;;;;14.30;99.90;;;;;;5103125;28;20893;-83
2022/10/17 03:51:32;;;;;;;;;;;14.30;99.90;;;;;;5086744;28;19958;-84
2022/10/17 03:53:57;;;;;;;;;;;14.30;99.90;;;;;;5088448;28;19912;-83
2022/10/17 03:56:24;;;;;;;;;;;14.30;99.90;;;;;;5071437;28;19920;-84
2022/10/17 03:58:50;;;;;;;;;;;14.30;99.90;;;;;;5088270;28;19900;-83
2022/10/17 04:01:16;;;;;;;;;;;14.20;99.90;;;;;;5088906;28;19913;-83
2022/10/17 04:03:47;;;;;;;;;;;14.20;99.90;;;;;;5087341;28;19904;-83
2022/10/17 04:06:13;;;;;;;;;;;14.30;99.90;;;;;;5101685;28;19915;-83
2022/10/17 04:08:38;;;;;;;;;;;14.30;99.90;;;;;;5090659;28;20210;-83
2022/10/17 04:11:06;;;;;;;;;;;14.30;99.90;;;;;;5088415;28;19908;-83
2022/10/17 04:13:32;;;;;;;;;;;14.20;99.90;;;;;;5084903;28;19915;-83
2022/10/17 04:16:00;;;;;;;;;;;14.20;99.90;;;;;;5069520;28;19908;-84
2022/10/17 04:18:26;;;;;;;;;;;14.30;99.90;;;;;;5084939;28;19980;-83
2022/10/17 04:20:52;;;;;;;;;;;14.30;99.90;;;;;;5068113;28;19923;-83
2022/10/17 04:23:18;;;;;;;;;;;14.40;99.90;;;;;;5087226;28;19976;-83
2022/10/17 04:25:47;;;;;;;;;;;14.30;99.90;;;;;;5098174;28;19920;-84
2022/10/17 04:28:14;;;;;;;;;;;14.30;99.90;;;;;;5092357;28;19920;-82
2022/10/17 04:30:39;;;;;;;;;;;14.30;99.90;;;;;;5072500;28;19955;-83
2022/10/17 04:33:05;;;;;;;;;;;14.20;99.90;;;;;;5093832;28;19920;-84
2022/10/17 04:35:34;;;;;;;;;;;14.10;99.90;;;;;;5091045;28;19919;-83
2022/10/17 04:38:02;;;;;;;;;;;14.20;99.90;;;;;;5088885;28;19940;-83
2022/10/17 04:40:28;;;;;;;;;;;14.00;99.90;;;;;;5074118;28;19924;-83
2022/10/17 04:42:53;;;;;;;;;;;14.00;99.90;;;;;;5096538;28;19973;-83
2022/10/17 04:45:19;;;;;;;;;;;13.90;99.90;;;;;;5094907;28;19932;-83
2022/10/17 04:47:45;;;;;;;;;;;13.90;99.90;;;;;;5094459;28;19920;-83
2022/10/17 04:50:11;;;;;;;;;;;14.00;99.90;;;;;;5085774;28;19919;-83
2022/10/17 04:52:42;;;;;;;;;;;14.00;99.90;;;;;;5079422;28;19913;-83
2022/10/17 04:55:08;;;;;;;;;;;13.90;99.90;;;;;;5086295;28;19912;-83
2022/10/17 04:57:40;;;;;;;;;;;13.90;99.90;;;;;;5078013;28;19913;-84
2022/10/17 05:00:08;;;;;;;;;;;13.90;99.90;;;;;;5107082;28;20136;-83
2022/10/17 05:02:34;;;;;;;;;;;13.80;99.90;;;;;;5075496;28;20282;-83
2022/10/17 05:05:00;;;;;;;;;;;13.80;99.90;;;;;;5091322;28;19916;-82
2022/10/17 05:07:25;;;;;;;;;;;13.70;99.90;;;;;;5092259;28;19912;-82
2022/10/17 05:09:51;;;;;;;;;;;13.70;99.90;;;;;;5085446;28;19944;-82
2022/10/17 05:12:17;;;;;;;;;;;13.70;99.90;;;;;;5092858;28;19913;-83
2022/10/17 05:14:42;;;;;;;;;;;13.70;99.90;;;;;;5092849;28;19934;-82
2022/10/17 05:17:08;;;;;;;;;;;13.70;99.90;;;;;;5091331;28;19924;-83
2022/10/17 05:19:44;;;;;;;;;;;13.70;99.90;;;;;;5093121;28;19912;-83
2022/10/17 05:22:13;;;;;;;;;;;13.70;99.90;;;;;;5094423;28;19916;-83
2022/10/17 05:24:56;;;;;;;;;;;13.70;99.90;;;;;;5096287;28;19954;-83
2022/10/17 05:27:31;;;;;;;;;;;13.70;99.90;;;;;;5070139;28;19909;-84
2022/10/17 05:29:56;;;;;;;;;;;13.70;99.90;;;;;;5093362;28;19955;-84
2022/10/17 05:32:22;;;;;;;;;;;13.70;99.90;;;;;;5095321;28;19913;-84
2022/10/17 05:34:48;;;;;;;;;;;13.70;99.90;;;;;;5095768;28;19939;-84
2022/10/17 05:37:14;;;;;;;;;;;13.70;99.90;;;;;;5085860;28;19965;-84
2022/10/17 05:39:40;;;;;;;;;;;13.70;99.90;;;;;;5075502;28;19939;-84
2022/10/17 05:42:06;;;;;;;;;;;13.70;99.90;;;;;;5072064;28;19911;-84
2022/10/17 05:44:32;;;;;;;;;;;13.70;99.90;;;;;;5094212;28;19920;-84
2022/10/17 05:46:57;;;;;;;;;;;13.70;99.90;;;;;;5039896;28;894768;-83
2022/10/17 05:49:23;;;;;;;;;;;13.80;99.90;;;;;;5083799;28;19927;-81
2022/10/17 05:51:49;;;;;;;;;;;13.90;99.90;;;;;;5092885;28;19916;-83
2022/10/17 05:54:15;;;;;;;;;;;14.00;99.90;;;;;;5088358;28;19921;-77
2022/10/17 05:56:40;;;;;;;;;;;14.10;99.90;;;;;;5079560;28;19970;-79
2022/10/17 05:59:06;;;;;;;;;;;14.10;99.90;;;;;;5074530;28;20274;-76
2022/10/17 06:01:32;;;;;;;;;;;14.10;99.90;;;;;;5077158;28;20003;-77
2022/10/17 06:03:58;;;;;;;;;;;14.30;99.90;;;;;;5075653;28;20007;-78
2022/10/17 06:06:23;;;;;;;;;;;14.30;99.90;;;;;;5076484;28;19942;-78
2022/10/17 06:08:49;;;;;;;;;;;14.30;99.90;;;;;;5080984;28;20305;-77
2022/10/17 06:11:15;;;;;;;;;;;14.50;99.90;;;;;;5075562;28;19944;-77
2022/10/17 06:13:40;;;;;;;;;;;14.60;99.90;;;;;;5086717;28;19931;-77
2022/10/17 06:16:07;;;;;;;;;;;14.70;99.90;;;;;;5076207;28;19912;-77
2022/10/17 06:18:32;;;;;;;;;;;14.70;99.90;;;;;;5085914;28;19970;-77
2022/10/17 06:21:06;;;;;;;;;;;14.60;99.90;;;;;;5091701;28;19911;-78
2022/10/17 06:23:31;;;;;;;;;;;14.60;99.90;;;;;;5087026;28;19912;-78
2022/10/17 06:25:58;;;;;;;;;;;14.70;99.90;;;;;;5085949;28;19927;-77
2022/10/17 06:28:24;;;;;;;;;;;14.80;99.90;;;;;;5089436;28;20318;-76
2022/10/17 06:30:50;;;;;;;;;;;14.80;99.90;;;;;;5059851;28;19919;-76
2022/10/17 06:33:16;;;;;;;;;;;14.90;99.90;;;;;;5082292;28;20335;-77
2022/10/17 06:35:42;;;;;;;;;;;15.10;99.90;;;;;;5073990;28;19923;-77
2022/10/17 06:38:08;;;;;;;;;;;15.10;99.90;;;;;;5078094;28;20310;-76
2022/10/17 06:40:34;;;;;;;;;;;15.20;99.90;;;;;;5077488;28;19912;-75
2022/10/17 06:43:00;;;;;;;;;;;15.40;99.90;;;;;;5074403;28;20406;-75
2022/10/17 06:45:26;;;;;;;;;;;15.40;99.90;;;;;;5071720;28;19969;-76
2022/10/17 06:47:54;;;;;;;;;;;15.30;99.90;;;;;;5075424;28;19920;-76
2022/10/17 06:50:27;;;;;;;;;;;15.40;99.90;;;;;;5074398;28;19916;-77
2022/10/17 06:52:53;;;;;;;;;;;15.40;99.90;;;;;;5089479;28;19912;-73
2022/10/17 06:55:18;;;;;;;;;;;15.80;99.90;;;;;;5072806;28;19954;-74
2022/10/17 06:57:44;;;;;;;;;;;16.70;99.90;;;;;;5075757;28;19968;-74
2022/10/17 07:00:10;;;;;;;;;;;17.90;99.90;;;;;;5073487;28;20370;-73
2022/10/17 07:02:36;;;;;;;;;;;18.70;99.90;;;;;;5072914;28;20094;-74
2022/10/17 07:05:02;;;;;;;;;;;19.10;99.90;;;;;;5073285;28;19916;-74
2022/10/17 07:07:33;;;;;;;;;;;19.30;99.90;;;;;;5074700;28;20417;-74
2022/10/17 07:09:59;;;;;;;;;;;19.40;99.90;;;;;;5072909;28;20546;-75
2022/10/17 07:12:25;;;;;;;;;;;19.00;99.90;;;;;;5075146;28;19912;-76
2022/10/17 07:14:51;;;;;;;;;;;18.60;99.90;;;;;;5073266;28;19924;-74
2022/10/17 07:17:17;;;;;;;;;;;18.20;99.90;;;;;;5077789;28;19913;-74
2022/10/17 07:19:43;;;;;;;;;;;18.00;99.90;;;;;;5073808;28;19919;-74
2022/10/17 07:22:09;;;;;;;;;;;17.80;99.90;;;;;;5071796;28;20281;-73
2022/10/17 07:24:35;;;;;;;;;;;17.60;99.90;;;;;;5078226;28;19982;-73
2022/10/17 07:27:00;;;;;;;;;;;17.40;99.90;;;;;;5077663;28;19913;-72
2022/10/17 07:29:26;;;;;;;;;;;17.50;99.90;;;;;;5072511;28;20293;-72
2022/10/17 07:31:52;;;;;;;;;;;17.40;99.90;;;;;;5060468;28;19963;-73
2022/10/17 07:34:18;;;;;;;;;;;17.30;99.90;;;;;;5077029;28;20290;-74
2022/10/17 07:36:44;;;;;;;;;;;17.30;99.90;;;;;;5072982;28;20358;-72
2022/10/17 07:39:10;;;;;;;;;;;17.20;99.90;;;;;;5074442;28;20002;-72
2022/10/17 07:41:35;;;;;;;;;;;17.20;99.90;;;;;;5072178;28;19997;-72
2022/10/17 07:44:01;;;;;;;;;;;17.30;99.90;;;;;;5073179;28;20035;-72
2022/10/17 07:46:27;;;;;;;;;;;17.30;99.90;;;;;;5070804;28;19947;-73
2022/10/17 07:48:53;;;;;;;;;;;17.40;99.90;;;;;;5074533;28;19970;-73
2022/10/17 07:51:19;;;;;;;;;;;17.50;99.90;;;;;;5054792;28;20007;-72
2022/10/17 07:53:47;;;;;;;;;;;17.60;99.90;;;;;;5074105;28;19909;-72
2022/10/17 07:56:13;;;;;;;;;;;17.70;99.90;;;;;;5055693;28;20412;-73
2022/10/17 07:58:39;;;;;;;;;;;17.70;99.90;;;;;;5070099;28;19940;-72
2022/10/17 08:01:09;;;;;;;;;;;17.70;99.90;;;;;;5073443;28;19912;-73
2022/10/17 08:03:35;;;;;;;;;;;17.80;99.90;;;;;;5069599;28;20017;-72
2022/10/17 08:06:02;;;;;;;;;;;18.00;99.90;;;;;;5072576;28;20361;-72
2022/10/17 08:08:28;;;;;;;;;;;18.20;99.90;;;;;;5074092;28;19967;-73
2022/10/17 08:10:54;;;;;;;;;;;18.30;99.90;;;;;;5073588;28;19954;-72
2022/10/17 08:13:21;;;;;;;;;;;18.40;99.90;;;;;;5071802;28;19976;-73
2022/10/17 08:15:47;;;;;;;;;;;18.40;99.90;;;;;;5071888;28;20402;-72
2022/10/17 08:18:13;;;;;;;;;;;18.40;99.90;;;;;;5072015;28;19916;-73
2022/10/17 08:20:39;;;;;;;;;;;18.40;99.90;;;;;;5073804;28;19916;-73
2022/10/17 08:23:05;;;;;;;;;;;18.50;99.90;;;;;;5056301;28;19908;-72
2022/10/17 08:25:31;;;;;;;;;;;18.60;99.90;;;;;;5072595;28;19923;-72
2022/10/17 08:27:57;;;;;;;;;;;18.70;99.90;;;;;;5073498;28;19928;-71
2022/10/17 08:30:22;;;;;;;;;;;18.70;99.90;;;;;;5073301;28;19912;-71
2022/10/17 08:32:48;;;;;;;;;;;18.80;99.90;;;;;;5072894;28;19912;-73
2022/10/17 08:35:14;;;;;;;;;;;18.90;99.90;;;;;;5073301;28;19912;-73
2022/10/17 08:37:40;;;;;;;;;;;19.00;99.90;;;;;;5074283;28;19912;-73
2022/10/17 08:40:06;;;;;;;;;;;19.00;99.90;;;;;;5073830;28;19909;-75
2022/10/17 08:42:35;;;;;;;;;;;19.00;99.90;;;;;;5054999;28;19917;-77
2022/10/17 08:45:19;;;;;;;;;;;19.00;99.90;;;;;;5073600;28;19970;-76
2022/10/17 08:47:48;;;;;;;;;;;19.10;99.90;;;;;;5073191;28;20187;-73
2022/10/17 08:50:19;;;;;;;;;;;19.10;99.90;;;;;;5072870;28;19917;-72
2022/10/17 08:52:53;;;;;;;;;;;19.10;99.90;;;;;;5072688;28;19955;-76
2022/10/17 08:55:21;;;;;;;;;;;19.10;99.90;;;;;;5056228;28;20365;-74
2022/10/17 08:57:47;;;;;;;;;;;19.10;99.90;;;;;;5073883;28;19915;-75
2022/10/17 09:00:15;;;;;;;;;;;19.00;99.90;;;;;;5073536;28;19912;-73
2022/10/17 09:02:56;;;;;;;;;;;19.10;99.90;;;;;;5055365;28;19913;-73
2022/10/17 09:05:32;;;;;;;;;;;19.10;99.90;;;;;;5066203;28;19923;-73
2022/10/17 09:08:17;;;;;;;;;;;19.20;99.90;;;;;;5073684;28;19956;-72
2022/10/17 09:10:49;;;;;;;;;;;19.20;99.90;;;;;;5072714;28;20320;-71
2022/10/17 09:13:14;;;;;;;;;;;19.20;99.90;;;;;;5066557;28;19984;-71
2022/10/17 09:15:43;;;;;;;;;;;19.30;99.90;;;;;;5073143;28;19912;-71
2022/10/17 09:18:15;;;;;;;;;;;19.30;99.90;;;;;;5072961;28;19974;-70
2022/10/17 09:20:41;;;;;;;;;;;19.40;99.90;;;;;;5072090;28;19908;-70
2022/10/17 09:23:12;;;;;;;;;;;19.40;99.90;;;;;;5072660;28;19916;-69
2022/10/17 09:25:42;;;;;;;;;;;19.50;99.90;;;;;;5070817;28;19920;-70
2022/10/17 09:28:14;;;;;;;;;;;19.50;99.90;;;;;;5055469;28;20004;-72
2022/10/17 09:30:49;;;;;;;;;;;19.60;99.90;;;;;;5076727;28;19908;-72
2022/10/17 09:33:16;;;;;;;;;;;19.50;99.90;;;;;;5075354;28;20282;-72
2022/10/17 09:35:42;;;;;;;;;;;19.50;99.90;;;;;;5072805;28;20308;-72
2022/10/17 09:38:12;;;;;;;;;;;19.50;99.90;;;;;;5078486;28;20267;-72
2022/10/17 09:40:38;;;;;;;;;;;19.50;99.90;;;;;;5077309;28;19908;-73
2022/10/17 09:43:05;;;;;;;;;;;19.50;99.90;;;;;;5075534;28;19927;-72
2022/10/17 09:45:36;;;;;;;;;;;19.50;99.90;;;;;;5076118;28;19919;-73
2022/10/17 09:48:12;;;;;;;;;;;19.60;99.90;;;;;;5076461;28;19920;-73
2022/10/17 09:50:38;;;;;;;;;;;19.60;99.90;;;;;;5075246;28;19913;-73
2022/10/17 09:53:13;;;;;;;;;;;19.60;99.90;;;;;;5076114;28;19931;-75
2022/10/17 09:55:41;;;;;;;;;;;19.50;99.90;;;;;;5074340;28;19912;-73
2022/10/17 09:58:08;;;;;;;;;;;19.60;99.90;;;;;;5076626;28;19919;-73
2022/10/17 10:00:38;;;;;;;;;;;19.60;99.90;;;;;;5057979;28;19963;-73
2022/10/17 10:03:07;;;;;;;;;;;19.60;99.90;;;;;;5073764;28;20388;-73
2022/10/17 10:05:33;;;;;;;;;;;19.60;99.90;;;;;;5072570;28;19916;-73
2022/10/17 10:08:01;;;;;;;;;;;19.60;99.90;;;;;;5055982;28;19994;-73
2022/10/17 10:10:28;;;;;;;;;;;19.60;99.90;;;;;;5074137;28;19912;-72
2022/10/17 10:13:02;;;;;;;;;;;19.60;99.90;;;;;;5072927;28;20331;-72
2022/10/17 10:15:33;;;;;;;;;;;19.60;99.90;;;;;;5055041;28;19920;-72
2022/10/17 10:18:01;;;;;;;;;;;19.70;99.90;;;;;;5074544;28;20361;-73
2022/10/17 10:20:32;;;;;;;;;;;19.70;99.90;;;;;;5074828;28;19928;-73
2022/10/17 10:23:04;;;;;;;;;;;19.80;99.90;;;;;;5074495;28;20289;-73
2022/10/17 10:25:29;;;;;;;;;;;19.70;99.90;;;;;;5073245;28;20103;-74
2022/10/17 10:27:55;;;;;;;;;;;19.80;99.90;;;;;;5075178;28;20031;-73
2022/10/17 10:30:26;;;;;;;;;;;19.70;99.90;;;;;;5072914;28;20297;-73
2022/10/17 10:32:52;;;;;;;;;;;19.70;99.90;;;;;;5073284;28;20008;-73
2022/10/17 10:35:22;;;;;;;;;;;19.60;99.90;;;;;;5057308;28;19952;-73
2022/10/17 10:37:50;;;;;;;;;;;19.60;99.90;;;;;;5074928;28;19912;-73
2022/10/17 10:40:20;;;;;;;;;;;19.60;99.90;;;;;;5068729;28;19978;-74
2022/10/17 10:42:46;;;;;;;;;;;19.70;99.90;;;;;;5075372;28;19919;-72
2022/10/17 10:45:16;;;;;;;;;;;19.80;99.90;;;;;;5074998;28;20015;-73
2022/10/17 10:47:53;;;;;;;;;;;19.90;99.90;;;;;;5073286;28;19927;-73
2022/10/17 10:50:28;;;;;;;;;;;19.90;99.90;;;;;;5074621;28;20167;-73
2022/10/17 10:52:54;;;;;;;;;;;19.90;99.90;;;;;;5073594;28;19912;-75
2022/10/17 10:55:26;;;;;;;;;;;19.90;99.90;;;;;;5074393;28;19928;-74
2022/10/17 10:57:54;;;;;;;;;;;20.00;99.90;;;;;;5075145;28;19916;-73
2022/10/17 11:00:21;;;;;;;;;;;20.10;99.90;;;;;;5087504;28;19979;-74
2022/10/17 11:03:06;;;;;;;;;;;20.20;99.90;;;;;;5075471;28;20266;-74
2022/10/17 11:05:38;;;;;;;;;;;20.10;99.90;;;;;;5061406;28;19960;-73
2022/10/17 11:08:24;;;;;;;;;;;20.10;99.90;;;;;;5080770;28;20018;-73
2022/10/17 11:11:05;;;;;;;;;;;20.00;99.90;;;;;;5065513;28;20015;-73
2022/10/17 11:13:35;;;;;;;;;;;20.10;99.90;;;;;;5077916;28;20269;-72
2022/10/17 11:16:03;;;;;;;;;;;20.10;99.90;;;;;;5075567;28;19912;-74
2022/10/17 11:18:33;;;;;;;;;;;20.10;99.90;;;;;;5075275;28;19965;-75
2022/10/17 11:21:09;;;;;;;;;;;20.20;99.90;;;;;;5056956;28;20405;-74
2022/10/17 11:23:55;;;;;;;;;;;20.20;99.90;;;;;;5079398;28;19935;-74
2022/10/17 11:26:25;;;;;;;;;;;20.20;99.90;;;;;;5078151;28;19917;-74
2022/10/17 11:28:55;;;;;;;;;;;20.30;99.90;;;;;;5073440;28;20354;-74
2022/10/17 11:31:23;;;;;;;;;;;20.40;99.90;;;;;;5077845;28;19918;-73
2022/10/17 11:33:51;;;;;;;;;;;20.50;99.90;;;;;;5058721;28;19954;-74
2022/10/17 11:36:18;;;;;;;;;;;20.50;99.90;;;;;;5076665;28;19919;-73
2022/10/17 11:38:47;;;;;;;;;;;20.50;99.90;;;;;;5073795;28;19912;-74
2022/10/17 11:41:38;;;;;;;;;;;20.40;99.90;;;;;;5075934;28;20023;-73
2022/10/17 11:44:18;;;;;;;;;;;20.40;99.90;;;;;;5072741;28;19920;-77
2022/10/17 11:46:45;;;;;;;;;;;20.40;99.90;;;;;;5074379;28;20011;-74
2022/10/17 11:49:12;;;;;;;;;;;20.40;99.90;;;;;;5074848;28;20276;-73
2022/10/17 11:51:44;;;;;;;;;;;20.40;99.90;;;;;;5072395;28;19959;-73
2022/10/17 11:54:09;;;;;;;;;;;20.40;99.90;;;;;;5073408;28;19924;-73
2022/10/17 11:56:48;;;;;;;;;;;20.40;99.90;;;;;;5072427;28;19912;-74
2022/10/17 11:59:17;;;;;;;;;;;20.40;99.90;;;;;;5075230;28;19972;-74
2022/10/17 12:01:50;;;;;;;;;;;20.30;99.90;;;;;;5055447;28;19912;-74
2022/10/17 12:04:36;;;;;;;;;;;20.40;99.90;;;;;;5075385;28;20046;-74
2022/10/17 12:07:18;;;;;;;;;;;20.30;99.90;;;;;;5073640;28;19975;-75
2022/10/17 12:09:48;;;;;;;;;;;20.30;99.90;;;;;;5078364;28;19909;-74
2022/10/17 12:12:23;;;;;;;;;;;20.30;99.90;;;;;;5076261;28;19931;-73
2022/10/17 12:14:49;;;;;;;;;;;20.30;99.90;;;;;;5076030;28;20050;-74
2022/10/17 12:17:27;;;;;;;;;;;20.30;99.90;;;;;;5058120;28;19908;-74
2022/10/17 12:19:53;;;;;;;;;;;20.30;99.90;;;;;;5091042;28;20005;-73
2022/10/17 12:22:25;;;;;;;;;;;20.20;99.90;;;;;;5062067;28;19908;-77
2022/10/17 12:24:56;;;;;;;;;;;20.30;99.90;;;;;;5096267;28;19932;-77
2022/10/17 12:27:33;;;;;;;;;;;20.40;99.90;;;;;;5080450;28;19919;-77
2022/10/17 12:30:14;;;;;;;;;;;20.40;99.90;;;;;;5079028;28;19978;-77
2022/10/17 12:32:58;;;;;;;;;;;20.40;99.90;;;;;;5060087;28;19916;-77
2022/10/17 12:35:25;;;;;;;;;;;20.30;99.90;;;;;;5094324;28;19909;-77
2022/10/17 12:37:51;;;;;;;;;;;20.40;99.90;;;;;;5077993;28;19959;-77
2022/10/17 12:40:35;;;;;;;;;;;20.40;99.90;;;;;;5076613;28;19912;-77
2022/10/17 12:43:14;;;;;;;;;;;20.40;99.90;;;;;;5077092;28;19912;-77
2022/10/17 12:45:46;;;;;;;;;;;20.50;99.90;;;;;;5076537;28;20007;-77
2022/10/17 12:48:12;;;;;;;;;;;20.50;99.90;;;;;;5076543;28;19989;-77
2022/10/17 12:50:57;;;;;;;;;;;20.50;99.90;;;;;;5057518;28;19969;-77
2022/10/17 12:53:24;;;;;;;;;;;20.50;99.90;;;;;;5076964;28;20141;-78
2022/10/17 12:55:57;;;;;;;;;;;20.60;99.90;;;;;;5059432;28;19909;-77
2022/10/17 12:58:23;;;;;;;;;;;20.70;99.90;;;;;;5077057;28;19916;-78
2022/10/17 13:00:58;;;;;;;;;;;20.70;99.90;;;;;;5075470;28;19909;-77
2022/10/17 13:03:25;;;;;;;;;;;20.70;99.90;;;;;;5078047;28;19947;-77
2022/10/17 13:05:56;;;;;;;;;;;20.70;99.90;;;;;;5080016;28;20270;-77
2022/10/17 13:08:24;;;;;;;;;;;20.70;99.90;;;;;;5080436;28;19912;-78
2022/10/17 13:10:51;;;;;;;;;;;20.60;99.90;;;;;;5076965;28;19912;-77
2022/10/17 13:13:32;;;;;;;;;;;20.60;99.90;;;;;;5080501;28;19936;-78
2022/10/17 13:15:58;;;;;;;;;;;20.60;99.90;;;;;;5061221;28;19919;-77
2022/10/17 13:18:25;;;;;;;;;;;20.60;99.90;;;;;;5081054;28;19958;-78
2022/10/17 13:21:13;;;;;;;;;;;20.60;99.90;;;;;;5080754;28;19912;-77
2022/10/17 13:23:39;;;;;;;;;;;20.60;99.90;;;;;;5078409;28;19912;-78
2022/10/17 13:26:05;;;;;;;;;;;20.60;99.90;;;;;;5078684;28;20003;-77
2022/10/17 13:28:30;;;;;;;;;;;20.60;99.90;;;;;;5080159;28;19913;-78
2022/10/17 13:30:56;;;;;;;;;;;20.60;99.90;;;;;;5079318;28;19912;-77
2022/10/17 13:33:28;;;;;;;;;;;20.50;99.90;;;;;;5082270;28;19916;-80
2022/10/17 13:35:54;;;;;;;;;;;20.50;99.90;;;;;;5065139;28;19912;-76
2022/10/17 13:38:23;;;;;;;;;;;20.60;99.90;;;;;;5060542;28;19934;-77
2022/10/17 13:40:48;;;;;;;;;;;20.70;99.90;;;;;;5078044;28;19916;-79
2022/10/17 13:43:16;;;;;;;;;;;20.70;99.90;;;;;;5071961;28;19915;-77
2022/10/17 13:45:45;;;;;;;;;;;20.70;99.90;;;;;;5075231;28;19920;-78
2022/10/17 13:48:18;;;;;;;;;;;20.60;99.90;;;;;;5076878;28;20061;-77
2022/10/17 13:50:46;;;;;;;;;;;20.60;99.90;;;;;;5076815;28;19919;-77
2022/10/17 13:53:11;;;;;;;;;;;20.50;99.90;;;;;;5079697;28;19924;-79
2022/10/17 13:55:37;;;;;;;;;;;20.50;99.90;;;;;;5078314;28;19912;-77
2022/10/17 13:58:14;;;;;;;;;;;20.40;99.90;;;;;;5077219;28;19998;-77
2022/10/17 14:00:40;;;;;;;;;;;20.40;99.90;;;;;;5075824;28;19909;-77
2022/10/17 14:03:05;;;;;;;;;;;20.40;99.90;;;;;;5061318;28;20016;-78
2022/10/17 14:05:31;;;;;;;;;;;20.40;99.90;;;;;;5078235;28;19947;-77
2022/10/17 14:07:58;;;;;;;;;;;20.40;99.90;;;;;;5078394;28;19958;-77
2022/10/17 14:10:26;;;;;;;;;;;20.30;99.90;;;;;;5078073;28;20378;-77
2022/10/17 14:12:52;;;;;;;;;;;20.30;99.90;;;;;;5077088;28;19916;-77
2022/10/17 14:15:20;;;;;;;;;;;20.30;99.90;;;;;;5090724;28;20476;-78
2022/10/17 14:17:45;;;;;;;;;;;20.30;99.90;;;;;;5077759;28;19916;-77
2022/10/17 14:20:19;;;;;;;;;;;20.30;99.90;;;;;;5059312;28;20473;-76
2022/10/17 14:22:45;;;;;;;;;;;20.40;99.90;;;;;;5077454;28;19912;-76
2022/10/17 14:25:25;;;;;;;;;;;20.40;99.90;;;;;;5077651;28;19928;-79
2022/10/17 14:27:54;;;;;;;;;;;20.50;99.90;;;;;;5084162;28;19948;-77
2022/10/17 14:30:26;;;;;;;;;;;20.40;99.90;;;;;;5078052;28;19912;-76